Observation data for O'Donnell on 03/23/2019      Previous  Date  Next       Current Mesonet Observations  Soil Data  Daily Summary Page  Observations in Plain Language
KOES 230500Z 17009KT 14/09 A2998 RMK A01 T01360093  RH  078%=      5-min Rain = 0
KOES 230505Z 17009KT 14/09 A2998 RMK A01 T01350094  RH  078%=      5-min Rain = 0
KOES 230510Z 17008KT 14/09 A2998 RMK A01 T01350094  RH  079%=      5-min Rain = 0
KOES 230515Z 19009KT 13/09 A2998 RMK A01 T01340094  RH  079%=      5-min Rain = 0
KOES 230520Z 18010G15KT 14/10 A2998 RMK A01 T01350095  RH  079%=      5-min Rain = 0
KOES 230525Z 17010G15KT 14/10 A2998 RMK A01 T01350095  RH  079%=      5-min Rain = 0
KOES 230530Z 17010KT 13/10 A2998 RMK A01 T01340095  RH  080%=      5-min Rain = 0
KOES 230535Z 19009KT 13/10 A2998 RMK A01 T01340096  RH  080%=      5-min Rain = 0
KOES 230540Z 18010G15KT 14/10 A2998 RMK A01 T01350097  RH  080%=      5-min Rain = 0
KOES 230545Z 18012KT 14/10 A2998 RMK A01 T01350097  RH  080%=      5-min Rain = 0
KOES 230550Z 18011KT 13/10 A2998 RMK A01 T01330097  RH  081%=      5-min Rain = 0
KOES 230555Z 18011G16KT 13/10 A2998 RMK A01 T01330097  RH  081%=      5-min Rain = 0
KOES 230600Z 18011G17KT 13/10 A2998 RMK A01 T01320097  RH  082%=      5-min Rain = 0
KOES 230605Z 19010KT 13/10 A2998 RMK A01 T01310096  RH  082%=      5-min Rain = 0
KOES 230610Z 19010KT 13/10 A2998 RMK A01 T01290096  RH  083%=      5-min Rain = 0
KOES 230615Z 18010KT 13/10 A2998 RMK A01 T01280096  RH  084%=      5-min Rain = 0
KOES 230620Z 19011KT 13/10 A2998 RMK A01 T01260095  RH  084%=      5-min Rain = 0
KOES 230625Z 19009KT 13/10 A2998 RMK A01 T01250095  RH  084%=      5-min Rain = 0
KOES 230630Z 19011G16KT 13/10 A2998 RMK A01 T01250096  RH  085%=      5-min Rain = 0
KOES 230635Z 19011KT 12/10 A2998 RMK A01 T01240095  RH  085%=      5-min Rain = 0
KOES 230640Z 20010KT 12/09 A2998 RMK A01 T01230094  RH  086%=      5-min Rain = 0
KOES 230645Z 19011G17KT 12/10 A2998 RMK A01 T01220095  RH  086%=      5-min Rain = 0
KOES 230650Z 19012KT 12/10 A2998 RMK A01 T01220095  RH  086%=      5-min Rain = 0
KOES 230655Z 19012G17KT 12/10 A2998 RMK A01 T01220095  RH  086%=      5-min Rain = 0
KOES 230700Z 19011KT 12/10 A2998 RMK A01 T01230096  RH  086%=      5-min Rain = 0
KOES 230705Z 19014G20KT 13/10 A2997 RMK A01 T01250098  RH  086%=      5-min Rain = 0
KOES 230710Z 19014G19KT 13/10 A2997 RMK A01 T01260098  RH  086%=      5-min Rain = 0
KOES 230715Z 19013G18KT 13/10 A2997 RMK A01 T01260098  RH  086%=      5-min Rain = 0
KOES 230720Z 19014KT 13/10 A2997 RMK A01 T01260098  RH  086%=      5-min Rain = 0
KOES 230725Z 19013KT 13/10 A2997 RMK A01 T01250098  RH  086%=      5-min Rain = 0
KOES 230730Z 19013G18KT 12/10 A2997 RMK A01 T01240097  RH  087%=      5-min Rain = 0
KOES 230735Z 19014G19KT 13/10 A2997 RMK A01 T01250099  RH  087%=      5-min Rain = 0
KOES 230740Z 19014KT 13/10 A2997 RMK A01 T01250099  RH  087%=      5-min Rain = 0
KOES 230745Z 19012KT 12/10 A2997 RMK A01 T01230098  RH  087%=      5-min Rain = 0
KOES 230750Z 19011G16KT 12/10 A2997 RMK A01 T01220097  RH  088%=      5-min Rain = 0
KOES 230755Z 19011KT 12/10 A2997 RMK A01 T01200097  RH  088%=      5-min Rain = 0
KOES 230800Z 19011KT 12/10 A2997 RMK A01 T01190097  RH  089%=      5-min Rain = 0
KOES 230805Z 19010KT 12/10 A2998 RMK A01 T01180096  RH  089%=      5-min Rain = 0
KOES 230810Z 20010KT 12/10 A2998 RMK A01 T01180096  RH  089%=      5-min Rain = 0
KOES 230815Z 20010KT 12/10 A2998 RMK A01 T01160095  RH  090%=      5-min Rain = 0
KOES 230820Z 20010KT 12/10 A2997 RMK A01 T01150095  RH  091%=      5-min Rain = 0
KOES 230825Z 20010KT 11/10 A2997 RMK A01 T01140096  RH  092%=      5-min Rain = 0
KOES 230830Z 21010KT 11/10 A2997 RMK A01 T01130100  RH  095%=      5-min Rain = 0
KOES 230835Z 21009KT 11/10 A2998 RMK A01 T01120100  RH  096%=      5-min Rain = 0
KOES 230840Z 21008KT 11/10 A2997 RMK A01 T01100101  RH  097%=      5-min Rain = 0
KOES 230845Z 22008KT 11/10 A2997 RMK A01 T01090101  RH  098%=      5-min Rain = 0
KOES 230850Z 22008KT 11/10 A2997 RMK A01 T01070100  RH  098%=      5-min Rain = 0
KOES 230855Z 22007KT 11/10 A2997 RMK A01 T01070100  RH  099%=      5-min Rain = 0
KOES 230900Z 23007KT 11/10 A2997 RMK A01 T01070100  RH  099%=      5-min Rain = 0
KOES 230905Z 24008KT 11/10 A2997 RMK A01 T01050098  RH  099%=      5-min Rain = 0
KOES 230910Z 23008KT 10/10 A2997 RMK A01 T01040099  RH  099%=      5-min Rain = 0
KOES 230915Z 23008KT 10/10 A2997 RMK A01 T01040098  RH  099%=      5-min Rain = 0
KOES 230920Z 25007KT 10/10 A2997 RMK A01 T01020096  RH  099%=      5-min Rain = 0
KOES 230925Z 27007KT 10/09 A2997 RMK A01 T00990094  RH  099%=      5-min Rain = 0
KOES 230930Z 29009KT 10/09 A2997 RMK A01 T00980093  RH  100%=      5-min Rain = 0
KOES 230935Z 29009KT 10/09 A2998 RMK A01 T00980094  RH  100%=      5-min Rain = 0
KOES 230940Z 29009KT 10/10 A2998 RMK A01 T01000096  RH  100%=      5-min Rain = 0
KOES 230945Z 29009KT 10/10 A2998 RMK A01 T01030098  RH  100%=      5-min Rain = 0
KOES 230950Z 29008KT 11/10 A2998 RMK A01 T01050100  RH  100%=      5-min Rain = 0
KOES 230955Z 28007KT 11/10 A2998 RMK A01 T01050101  RH  100%=      5-min Rain = 0
KOES 231000Z 28007KT 11/10 A2998 RMK A01 T01060101  RH  100%=      5-min Rain = 0
KOES 231005Z 28008KT 11/10 A2998 RMK A01 T01070102  RH  100%=      5-min Rain = 0
KOES 231010Z 28008KT 11/10 A2998 RMK A01 T01080103  RH  100%=      5-min Rain = 0
KOES 231015Z 27007KT 11/10 A2998 RMK A01 T01080104  RH  100%=      5-min Rain = 0
KOES 231020Z 26007KT 11/10 A2998 RMK A01 T01090104  RH  100%=      5-min Rain = 0
KOES 231025Z 26008KT 11/11 A2998 RMK A01 T01100105  RH  100%=      5-min Rain = 0
KOES 231030Z 26009KT 11/11 A2998 RMK A01 T01110106  RH  100%=      5-min Rain = 0
KOES 231035Z 26010G15KT 11/11 A2998 RMK A01 T01130107  RH  100%=      5-min Rain = 0
KOES 231040Z 26012KT 12/11 A2998 RMK A01 T01150109  RH  099%=      5-min Rain = 0
KOES 231045Z 25013KT 12/11 A2998 RMK A01 T01160109  RH  099%=      5-min Rain = 0
KOES 231050Z 25014KT 12/11 A2998 RMK A01 T01150108  RH  099%=      5-min Rain = 0
KOES 231055Z 25014KT 11/11 A2998 RMK A01 T01140107  RH  099%=      5-min Rain = 0
KOES 231100Z 24012KT 11/11 A2998 RMK A01 T01140107  RH  099%=      5-min Rain = 0
KOES 231105Z 25013KT 11/11 A2998 RMK A01 T01130106  RH  099%=      5-min Rain = 0
KOES 231110Z 25012KT 11/11 A2998 RMK A01 T01130106  RH  099%=      5-min Rain = 0
KOES 231115Z 25011KT 11/11 A2998 RMK A01 T01130106  RH  099%=      5-min Rain = 0
KOES 231120Z 26010KT 11/11 A2998 RMK A01 T01130106  RH  099%=      5-min Rain = 0
KOES 231125Z 26011KT 11/11 A2999 RMK A01 T01110105  RH  099%=      5-min Rain = 0
KOES 231130Z 26011KT 11/10 A2998 RMK A01 T01100103  RH  099%=      5-min Rain = 0
KOES 231135Z 26013KT 11/10 A2999 RMK A01 T01080102  RH  099%=      5-min Rain = 0
KOES 231140Z 26010KT 11/10 A2999 RMK A01 T01080102  RH  099%=      5-min Rain = 0
KOES 231145Z 26008KT 11/10 A2999 RMK A01 T01060100  RH  099%=      5-min Rain = 0
KOES 231150Z 26009KT 11/10 A2999 RMK A01 T01050099  RH  099%=      5-min Rain = 0
KOES 231155Z 26009KT 10/10 A2999 RMK A01 T01040098  RH  100%=      5-min Rain = 0
KOES 231200Z 27008KT 10/10 A2999 RMK A01 T01010096  RH  100%=      5-min Rain = 0
KOES 231205Z 26008KT 10/09 A2999 RMK A01 T00990094  RH  100%=      5-min Rain = 0
KOES 231210Z 26008KT 10/09 A2999 RMK A01 T00980093  RH  100%=      5-min Rain = 0
KOES 231215Z 27007KT 10/09 A2999 RMK A01 T00950090  RH  100%=      5-min Rain = 0
KOES 231220Z 27008KT 09/09 A30 RMK A01 T00920088  RH  100%=      5-min Rain = 0
KOES 231225Z 27009KT 09/09 A30 RMK A01 T00910087  RH  100%=      5-min Rain = 0
KOES 231230Z 27008KT 09/09 A30 RMK A01 T00900085  RH  100%=      5-min Rain = 0
KOES 231235Z 27008KT 09/08 A30 RMK A01 T00880084  RH  100%=      5-min Rain = 0
KOES 231240Z 27009KT 09/08 A30 RMK A01 T00860082  RH  100%=      5-min Rain = 0
KOES 231245Z 28010KT 09/08 A30 RMK A01 T00850081  RH  100%=      5-min Rain = 0
KOES 231250Z 29010KT 08/08 A3001 RMK A01 T00840079  RH  100%=      5-min Rain = 0
KOES 231255Z 29010KT 08/08 A3001 RMK A01 T00820078  RH  100%=      5-min Rain = 0
KOES 231300Z 29010KT 08/08 A3001 RMK A01 T00800076  RH  100%=      5-min Rain = 0
KOES 231305Z 29010KT 08/07 A3002 RMK A01 T00780074  RH  100%=      5-min Rain = 0
KOES 231310Z 29010KT 08/07 A3002 RMK A01 T00770073  RH  100%=      5-min Rain = 0
KOES 231315Z 29010KT 08/07 A3002 RMK A01 T00770073  RH  100%=      5-min Rain = 0
KOES 231320Z 29010KT 08/07 A3002 RMK A01 T00770073  RH  100%=      5-min Rain = 0
KOES 231325Z 29009KT 08/07 A3002 RMK A01 T00780073  RH  100%=      5-min Rain = 0
KOES 231330Z 29010KT 08/07 A3002 RMK A01 T00780073  RH  099%=      5-min Rain = 0
KOES 231335Z 29010KT 08/07 A3003 RMK A01 T00790069  RH  096%=      5-min Rain = 0
KOES 231340Z 29010KT 08/06 A3003 RMK A01 T00810059  RH  088%=      5-min Rain = 0
KOES 231345Z 30010KT 08/06 A3003 RMK A01 T00840056  RH  085%=      5-min Rain = 0
KOES 231350Z 30010KT 09/05 A3003 RMK A01 T00860053  RH  081%=      5-min Rain = 0
KOES 231355Z 30011KT 09/05 A3003 RMK A01 T00900049  RH  077%=      5-min Rain = 0
KOES 231400Z 30011KT 09/05 A3004 RMK A01 T00930045  RH  074%=      5-min Rain = 0
KOES 231405Z 29011KT 10/05 A3004 RMK A01 T00950045  RH  072%=      5-min Rain = 0
KOES 231410Z 30010KT 10/04 A3004 RMK A01 T00990044  RH  070%=      5-min Rain = 0
KOES 231415Z 30010KT 10/04 A3004 RMK A01 T01040041  RH  066%=      5-min Rain = 0
KOES 231420Z 30010KT 11/04 A3004 RMK A01 T01080039  RH  064%=      5-min Rain = 0
KOES 231425Z 30009KT 11/04 A3005 RMK A01 T01130036  RH  060%=      5-min Rain = 0
KOES 231430Z 30010KT 12/03 A3005 RMK A01 T01180030  RH  056%=      5-min Rain = 0
KOES 231435Z 30010KT 12/03 A3005 RMK A01 T01230031  RH  054%=      5-min Rain = 0
KOES 231440Z 30010KT 13/03 A3005 RMK A01 T01250028  RH  052%=      5-min Rain = 0
KOES 231445Z 30011KT 13/03 A3005 RMK A01 T01280025  RH  051%=      5-min Rain = 0
KOES 231450Z 30011KT 13/02 A3005 RMK A01 T01310023  RH  049%=      5-min Rain = 0
KOES 231455Z 30010G15KT 14/02 A3005 RMK A01 T01370019  RH  045%=      5-min Rain = 0
KOES 231500Z 31011KT 15/01 A3005 RMK A01 T01460007  RH  039%=      5-min Rain = 0
KOES 231505Z 31010KT 15/01 A3005 RMK A01 T01500006  RH  038%=      5-min Rain = 0
KOES 231510Z 30011KT 16/M01 A3005 RMK A01 T01551005  RH  034%=      5-min Rain = 0
KOES 231515Z 31012KT 16/M01 A3005 RMK A01 T01581014  RH  031%=      5-min Rain = 0
KOES 231520Z 31011KT 16/M02 A3005 RMK A01 T01601018  RH  030%=      5-min Rain = 0
KOES 231525Z 30012G17KT 16/M02 A3005 RMK A01 T01631023  RH  028%=      5-min Rain = 0
KOES 231530Z 30012KT 17/M03 A3005 RMK A01 T01661030  RH  026%=      5-min Rain = 0
KOES 231535Z 31013KT 17/M03 A3005 RMK A01 T01671033  RH  025%=      5-min Rain = 0
KOES 231540Z 31015KT 17/M04 A3005 RMK A01 T01681040  RH  024%=      5-min Rain = 0
KOES 231545Z 31014KT 17/M05 A3005 RMK A01 T01691045  RH  023%=      5-min Rain = 0
KOES 231550Z 31015KT 17/M05 A3005 RMK A01 T01701046  RH  023%=      5-min Rain = 0
KOES 231555Z 31015KT 17/M04 A3005 RMK A01 T01721044  RH  023%=      5-min Rain = 0
KOES 231600Z 31016G21KT 17/M05 A3005 RMK A01 T01721046  RH  022%=      5-min Rain = 0
KOES 231605Z 31016G21KT 17/M05 A3005 RMK A01 T01741045  RH  022%=      5-min Rain = 0
KOES 231610Z 30015G20KT 18/M04 A3005 RMK A01 T01751043  RH  022%=      5-min Rain = 0
KOES 231615Z 30014G20KT 18/M04 A3005 RMK A01 T01791043  RH  022%=      5-min Rain = 0
KOES 231620Z 29016G21KT 18/M04 A3005 RMK A01 T01811043  RH  022%=      5-min Rain = 0
KOES 231625Z 30015G21KT 18/M05 A3005 RMK A01 T01801045  RH  021%=      5-min Rain = 0
KOES 231630Z 30014G20KT 18/M05 A3005 RMK A01 T01811047  RH  021%=      5-min Rain = 0
KOES 231635Z 30015KT 18/M05 A3005 RMK A01 T01831045  RH  021%=      5-min Rain = 0
KOES 231640Z 29016KT 18/M05 A3005 RMK A01 T01841049  RH  020%=      5-min Rain = 0
KOES 231645Z 29013G18KT 19/M04 A3005 RMK A01 T01851044  RH  021%=      5-min Rain = 0
KOES 231650Z 29013KT 19/M05 A3005 RMK A01 T01871046  RH  020%=      5-min Rain = 0
KOES 231655Z 30014G19KT 19/M05 A3005 RMK A01 T01871047  RH  020%=      5-min Rain = 0
KOES 231700Z 28013KT 19/M05 A3005 RMK A01 T01881045  RH  020%=      5-min Rain = 0
KOES 231705Z 29012KT 19/M04 A3005 RMK A01 T01901038  RH  021%=      5-min Rain = 0
KOES 231710Z 29011G17KT 19/M04 A3004 RMK A01 T01931037  RH  021%=      5-min Rain = 0
KOES 231715Z 29012G20KT 19/M04 A3004 RMK A01 T01931043  RH  020%=      5-min Rain = 0
KOES 231720Z 28013KT 19/M04 A3004 RMK A01 T01901040  RH  021%=      5-min Rain = 0
KOES 231725Z 28011G16KT 19/M04 A3005 RMK A01 T01911038  RH  021%=      5-min Rain = 0
KOES 231730Z 27013KT 20/M04 A3005 RMK A01 T01951035  RH  021%=      5-min Rain = 0
KOES 231735Z 27010G15KT 20/M04 A3004 RMK A01 T01971036  RH  021%=      5-min Rain = 0
KOES 231740Z 28014G20KT 20/M05 A3004 RMK A01 T02001045  RH  019%=      5-min Rain = 0
KOES 231745Z 28009G14KT 20/M04 A3004 RMK A01 T01981044  RH  019%=      5-min Rain = 0
KOES 231750Z 28013G20KT 20/M04 A3004 RMK A01 T02011043  RH  019%=      5-min Rain = 0
KOES 231755Z 30011G16KT 20/M05 A3004 RMK A01 T02021045  RH  019%=      5-min Rain = 0
KOES 231800Z 28014G19KT 20/M05 A3003 RMK A01 T02041047  RH  018%=      5-min Rain = 0
KOES 231805Z 28012KT 20/M05 A3003 RMK A01 T02031047  RH  018%=      5-min Rain = 0
KOES 231810Z 26012G17KT 20/M04 A3003 RMK A01 T02031042  RH  019%=      5-min Rain = 0
KOES 231815Z 28011KT 21/M04 A3003 RMK A01 T02051040  RH  019%=      5-min Rain = 0
KOES 231820Z 27011KT 21/M04 A3002 RMK A01 T02101041  RH  018%=      5-min Rain = 0
KOES 231825Z 27010G15KT 21/M04 A3002 RMK A01 T02071044  RH  018%=      5-min Rain = 0
KOES 231830Z 26012G17KT 21/M04 A3002 RMK A01 T02091041  RH  018%=      5-min Rain = 0
KOES 231835Z 26011G18KT 21/M04 A3002 RMK A01 T02111037  RH  019%=      5-min Rain = 0
KOES 231840Z 26016KT 21/M05 A3002 RMK A01 T02111047  RH  017%=      5-min Rain = 0
KOES 231845Z 27014G19KT 21/M04 A3002 RMK A01 T02131044  RH  018%=      5-min Rain = 0
KOES 231850Z 26011G18KT 21/M05 A3001 RMK A01 T02111045  RH  018%=      5-min Rain = 0
KOES 231855Z 25013G21KT 22/M05 A3001 RMK A01 T02151045  RH  017%=      5-min Rain = 0
KOES 231900Z 23013G20KT 21/M05 A3001 RMK A01 T02131053  RH  016%=      5-min Rain = 0
KOES 231905Z 25013G18KT 22/M05 A3001 RMK A01 T02151049  RH  017%=      5-min Rain = 0
KOES 231910Z 24014G20KT 22/M05 A3001 RMK A01 T02171051  RH  016%=      5-min Rain = 0
KOES 231915Z 24011G19KT 22/M05 A30 RMK A01 T02151053  RH  016%=      5-min Rain = 0
KOES 231920Z 26017G23KT 22/M05 A30 RMK A01 T02181054  RH  016%=      5-min Rain = 0
KOES 231925Z 24014G23KT 22/M06 A30 RMK A01 T02161055  RH  016%=      5-min Rain = 0
KOES 231930Z 25015G20KT 22/M05 A30 RMK A01 T02191051  RH  016%=      5-min Rain = 0
KOES 231935Z 25012G17KT 22/M05 A30 RMK A01 T02191054  RH  016%=      5-min Rain = 0
KOES 231940Z 26017G22KT 22/M05 A2999 RMK A01 T02211054  RH  015%=      5-min Rain = 0
KOES 231945Z 26013G18KT 22/M05 A2999 RMK A01 T02201053  RH  016%=      5-min Rain = 0
KOES 231950Z 25016G28KT 22/M05 A2999 RMK A01 T02221054  RH  015%=      5-min Rain = 0
KOES 231955Z 24017G25KT 22/M05 A2999 RMK A01 T02231053  RH  015%=      5-min Rain = 0
KOES 232000Z 25016G24KT 22/M05 A2999 RMK A01 T02241051  RH  016%=      5-min Rain = 0
KOES 232005Z 25017G24KT 22/M05 A2999 RMK A01 T02201053  RH  016%=      5-min Rain = 0
KOES 232010Z 25012KT 22/M06 A2999 RMK A01 T02161057  RH  016%=      5-min Rain = 0
KOES 232015Z 25017G24KT 22/M05 A2999 RMK A01 T02201053  RH  016%=      5-min Rain = 0
KOES 232020Z 25017G23KT 22/M06 A2999 RMK A01 T02221056  RH  015%=      5-min Rain = 0
KOES 232025Z 25019G26KT 22/M06 A2999 RMK A01 T02221059  RH  015%=      5-min Rain = 0
KOES 232030Z 25014KT 22/M06 A2999 RMK A01 T02201061  RH  015%=      5-min Rain = 0
KOES 232035Z 26017G24KT 22/M06 A2999 RMK A01 T02221064  RH  014%=      5-min Rain = 0
KOES 232040Z 25018G23KT 22/M06 A2998 RMK A01 T02181064  RH  015%=      5-min Rain = 0
KOES 232045Z 25015G22KT 22/M07 A2998 RMK A01 T02181066  RH  014%=      5-min Rain = 0
KOES 232050Z 26016G22KT 22/M07 A2998 RMK A01 T02181069  RH  014%=      5-min Rain = 0
KOES 232055Z 25018KT 22/M07 A2998 RMK A01 T02201069  RH  014%=      5-min Rain = 0
KOES 232100Z 25016G22KT 22/M07 A2998 RMK A01 T02221070  RH  014%=      5-min Rain = 0
KOES 232105Z 24014G19KT 23/M07 A2998 RMK A01 T02261070  RH  013%=      5-min Rain = 0
KOES 232110Z 25017G24KT 23/M06 A2998 RMK A01 T02261064  RH  014%=      5-min Rain = 0
KOES 232115Z 24016G21KT 22/M07 A2998 RMK A01 T02211071  RH  014%=      5-min Rain = 0
KOES 232120Z 23013KT 22/M07 A2998 RMK A01 T02191067  RH  014%=      5-min Rain = 0
KOES 232125Z 23015KT 22/M07 A2997 RMK A01 T02231066  RH  014%=      5-min Rain = 0
KOES 232130Z 23013KT 22/M07 A2997 RMK A01 T02221068  RH  014%=      5-min Rain = 0
KOES 232135Z 26014G22KT 23/M07 A2997 RMK A01 T02281067  RH  013%=      5-min Rain = 0
KOES 232140Z 26015G23KT 23/M07 A2997 RMK A01 T02301072  RH  013%=      5-min Rain = 0
KOES 232145Z 25015G20KT 23/M07 A2997 RMK A01 T02281072  RH  013%=      5-min Rain = 0
KOES 232150Z 24016G22KT 23/M08 A2997 RMK A01 T02271076  RH  013%=      5-min Rain = 0
KOES 232155Z 24015G21KT 23/M07 A2997 RMK A01 T02271074  RH  013%=      5-min Rain = 0
KOES 232200Z 24013G20KT 23/M07 A2997 RMK A01 T02281073  RH  013%=      5-min Rain = 0
KOES 232205Z 25017G22KT 23/M08 A2996 RMK A01 T02311080  RH  012%=      5-min Rain = 0
KOES 232210Z 25017G22KT 23/M09 A2996 RMK A01 T02281086  RH  012%=      5-min Rain = 0
KOES 232215Z 25014KT 23/M08 A2996 RMK A01 T02291083  RH  012%=      5-min Rain = 0
KOES 232220Z 25014G21KT 23/M08 A2996 RMK A01 T02291083  RH  012%=      5-min Rain = 0
KOES 232225Z 23013G20KT 23/M08 A2996 RMK A01 T02271082  RH  012%=      5-min Rain = 0
KOES 232230Z 25018KT 23/M08 A2996 RMK A01 T02321083  RH  012%=      5-min Rain = 0
KOES 232235Z 24016G22KT 23/M08 A2996 RMK A01 T02331083  RH  011%=      5-min Rain = 0
KOES 232240Z 25015G20KT 24/M08 A2996 RMK A01 T02361079  RH  012%=      5-min Rain = 0
KOES 232245Z 24016KT 23/M08 A2996 RMK A01 T02321084  RH  011%=      5-min Rain = 0
KOES 232250Z 23013KT 23/M08 A2996 RMK A01 T02311084  RH  012%=      5-min Rain = 0
KOES 232255Z 22014KT 23/M08 A2996 RMK A01 T02271083  RH  012%=      5-min Rain = 0
KOES 232300Z 22014G19KT 22/M08 A2995 RMK A01 T02211083  RH  012%=      5-min Rain = 0
KOES 232305Z 23014G19KT 22/M08 A2995 RMK A01 T02201082  RH  012%=      5-min Rain = 0
KOES 232310Z 24016KT 22/M08 A2995 RMK A01 T02201082  RH  012%=      5-min Rain = 0
KOES 232315Z 23014KT 22/M08 A2995 RMK A01 T02211082  RH  012%=      5-min Rain = 0
KOES 232320Z 22012G17KT 22/M08 A2995 RMK A01 T02221081  RH  012%=      5-min Rain = 0
KOES 232325Z 23013KT 22/M08 A2995 RMK A01 T02201082  RH  012%=      5-min Rain = 0
KOES 232330Z 24014G19KT 22/M08 A2995 RMK A01 T02201083  RH  012%=      5-min Rain = 0
KOES 232335Z 23012KT 23/M08 A2995 RMK A01 T02251078  RH  013%=      5-min Rain = 0
KOES 232340Z 24015KT 23/M09 A2995 RMK A01 T02261089  RH  011%=      5-min Rain = 0
KOES 232345Z 24015KT 22/M09 A2995 RMK A01 T02221093  RH  011%=      5-min Rain = 0
KOES 232350Z 25013KT 22/M09 A2995 RMK A01 T02221086  RH  012%=      5-min Rain = 0
KOES 232355Z 24011KT 22/M09 A2995 RMK A01 T02201088  RH  012%=      5-min Rain = 0
KOES 240000Z 24012KT 22/M09 A2995 RMK A01 T02161087  RH  012%=      5-min Rain = 0
KOES 240005Z 24013KT 21/M09 A2995 RMK A01 T02111089  RH  012%=      5-min Rain = 0
KOES 240010Z 23010KT 21/M09 A2995 RMK A01 T02061088  RH  013%=      5-min Rain = 0
KOES 240015Z 23010KT 20/M09 A2995 RMK A01 T02041091  RH  013%=      5-min Rain = 0
KOES 240020Z 24010KT 20/M09 A2995 RMK A01 T02011090  RH  013%=      5-min Rain = 0
KOES 240025Z 24009KT 20/M09 A2995 RMK A01 T02011089  RH  013%=      5-min Rain = 0
KOES 240030Z 23007KT 20/M08 A2996 RMK A01 T02011081  RH  014%=      5-min Rain = 0
KOES 240035Z 22008KT 20/M08 A2996 RMK A01 T02001077  RH  015%=      5-min Rain = 0
KOES 240040Z 22008KT 20/M07 A2996 RMK A01 T01971065  RH  016%=      5-min Rain = 0
KOES 240045Z 22006KT 19/M06 A2996 RMK A01 T01931058  RH  018%=      5-min Rain = 0
KOES 240050Z 21005KT 19/M05 A2995 RMK A01 T01891047  RH  020%=      5-min Rain = 0
KOES 240055Z 21005KT 19/M04 A2995 RMK A01 T01871043  RH  021%=      5-min Rain = 0
KOES 240100Z 20004KT 18/M04 A2995 RMK A01 T01821039  RH  022%=      5-min Rain = 0
KOES 240105Z 19005KT 18/M05 A2996 RMK A01 T01761049  RH  021%=      5-min Rain = 0
KOES 240110Z 20005KT 17/M06 A2996 RMK A01 T01721056  RH  021%=      5-min Rain = 0
KOES 240115Z 20006KT 17/M06 A2996 RMK A01 T01691059  RH  020%=      5-min Rain = 0
KOES 240120Z 20005KT 17/M06 A2996 RMK A01 T01671060  RH  021%=      5-min Rain = 0
KOES 240125Z 20005KT 16/M05 A2996 RMK A01 T01621045  RH  024%=      5-min Rain = 0
KOES 240130Z 20005KT 16/M04 A2997 RMK A01 T01561038  RH  026%=      5-min Rain = 0
KOES 240135Z 20005KT 15/M04 A2997 RMK A01 T01531042  RH  026%=      5-min Rain = 0
KOES 240140Z 20005KT 15/M05 A2997 RMK A01 T01481049  RH  025%=      5-min Rain = 0
KOES 240145Z 21005KT 15/M06 A2997 RMK A01 T01461055  RH  024%=      5-min Rain = 0
KOES 240150Z 20005KT 14/M06 A2998 RMK A01 T01441059  RH  024%=      5-min Rain = 0
KOES 240155Z 20005KT 14/M06 A2998 RMK A01 T01431060  RH  024%=      5-min Rain = 0
KOES 240200Z 20005KT 14/M06 A2998 RMK A01 T01411061  RH  024%=      5-min Rain = 0
KOES 240205Z 21005KT 14/M06 A2998 RMK A01 T01371061  RH  025%=      5-min Rain = 0
KOES 240210Z 22005KT 14/M06 A2999 RMK A01 T01351059  RH  026%=      5-min Rain = 0
KOES 240215Z 22004KT 13/M06 A2999 RMK A01 T01341057  RH  026%=      5-min Rain = 0
KOES 240220Z 21004KT 13/M05 A2999 RMK A01 T01331054  RH  027%=      5-min Rain = 0
KOES 240225Z 21004KT 13/M06 A2999 RMK A01 T01301056  RH  027%=      5-min Rain = 0
KOES 240230Z 21004KT 13/M05 A2999 RMK A01 T01301054  RH  027%=      5-min Rain = 0
KOES 240235Z 20004KT 13/M04 A2999 RMK A01 T01311044  RH  029%=      5-min Rain = 0
KOES 240240Z 20004KT 13/M04 A30 RMK A01 T01301041  RH  030%=      5-min Rain = 0
KOES 240245Z 20004KT 13/M05 A30 RMK A01 T01301054  RH  028%=      5-min Rain = 0
KOES 240250Z 20004KT 13/M06 A30 RMK A01 T01301062  RH  026%=      5-min Rain = 0
KOES 240255Z 20005KT 13/M06 A30 RMK A01 T01301061  RH  026%=      5-min Rain = 0
KOES 240300Z 20004KT 13/M06 A3001 RMK A01 T01281061  RH  026%=      5-min Rain = 0
KOES 240305Z 20005KT 13/M06 A30 RMK A01 T01281059  RH  027%=      5-min Rain = 0
KOES 240310Z 20005KT 13/M06 A30 RMK A01 T01281059  RH  027%=      5-min Rain = 0
KOES 240315Z 20005KT 13/M06 A3001 RMK A01 T01261058  RH  027%=      5-min Rain = 0
KOES 240320Z 20004KT 12/M06 A3001 RMK A01 T01221056  RH  028%=      5-min Rain = 0
KOES 240325Z 20005KT 12/M05 A3001 RMK A01 T01201051  RH  030%=      5-min Rain = 0
KOES 240330Z 20005KT 12/M05 A30 RMK A01 T01191054  RH  030%=      5-min Rain = 0
KOES 240335Z 20006KT 12/M06 A3001 RMK A01 T01191055  RH  029%=      5-min Rain = 0
KOES 240340Z 20006KT 12/M05 A3001 RMK A01 T01181052  RH  030%=      5-min Rain = 0
KOES 240345Z 20006KT 12/M05 A3001 RMK A01 T01171048  RH  031%=      5-min Rain = 0
KOES 240350Z 19006KT 12/M05 A3001 RMK A01 T01151045  RH  032%=      5-min Rain = 0
KOES 240355Z 20006KT 11/M05 A3001 RMK A01 T01141049  RH  032%=      5-min Rain = 0
KOES 240400Z 20005KT 11/M06 A3001 RMK A01 T01131055  RH  030%=      5-min Rain = 0
KOES 240405Z 21005KT 11/M05 A3001 RMK A01 T01111051  RH  032%=      5-min Rain = 0
KOES 240410Z 21005KT 11/M05 A3001 RMK A01 T01081051  RH  032%=      5-min Rain = 0
KOES 240415Z 20004KT 11/M05 A3001 RMK A01 T01081051  RH  033%=      5-min Rain = 0
KOES 240420Z 19005KT 11/M05 A3001 RMK A01 T01071050  RH  033%=      5-min Rain = 0
KOES 240425Z 19005KT 11/M05 A3001 RMK A01 T01061047  RH  034%=      5-min Rain = 0
KOES 240430Z 19005KT 10/M04 A3001 RMK A01 T01041039  RH  037%=      5-min Rain = 0
KOES 240435Z 18005KT 10/M04 A3001 RMK A01 T01031039  RH  037%=      5-min Rain = 0
KOES 240440Z 18006KT 11/M04 A3001 RMK A01 T01061039  RH  036%=      5-min Rain = 0
KOES 240445Z 18006KT 11/M04 A3001 RMK A01 T01111044  RH  033%=      5-min Rain = 0
KOES 240450Z 18005KT 12/M05 A3001 RMK A01 T01171049  RH  031%=      5-min Rain = 0

Page generated in 0.0092 seconds.